sensor_id;sensor_type;location;lat;lon;timestamp;pressure;altitude;pressure_sealevel;temperature;humidity
37792;BME280;29527;55.766;37.570;2023-05-11T00:01:06;100436.00;;;13.00;38.27
37792;BME280;29527;55.766;37.570;2023-05-11T00:03:33;100444.16;;;12.98;37.76
37792;BME280;29527;55.766;37.570;2023-05-11T00:05:58;100437.69;;;13.01;38.34
37792;BME280;29527;55.766;37.570;2023-05-11T00:08:24;100433.41;;;12.98;38.31
37792;BME280;29527;55.766;37.570;2023-05-11T00:10:50;100425.75;;;12.94;38.16
37792;BME280;29527;55.766;37.570;2023-05-11T00:13:16;100442.19;;;13.00;38.51
37792;BME280;29527;55.766;37.570;2023-05-11T00:15:41;100439.66;;;12.99;38.01
37792;BME280;29527;55.766;37.570;2023-05-11T00:18:07;100434.53;;;12.96;38.18
37792;BME280;29527;55.766;37.570;2023-05-11T00:20:32;100428.28;;;12.95;38.29
37792;BME280;29527;55.766;37.570;2023-05-11T00:22:58;100429.53;;;12.91;38.77
37792;BME280;29527;55.766;37.570;2023-05-11T00:25:23;100433.91;;;12.92;38.20
37792;BME280;29527;55.766;37.570;2023-05-11T00:27:49;100441.00;;;12.93;38.27
37792;BME280;29527;55.766;37.570;2023-05-11T00:30:15;100439.44;;;12.90;37.65
37792;BME280;29527;55.766;37.570;2023-05-11T00:32:41;100430.03;;;12.85;38.13
37792;BME280;29527;55.766;37.570;2023-05-11T00:35:08;100442.22;;;12.89;38.22
37792;BME280;29527;55.766;37.570;2023-05-11T00:37:34;100426.63;;;12.83;38.42
37792;BME280;29527;55.766;37.570;2023-05-11T00:39:59;100429.88;;;12.86;38.65
37792;BME280;29527;55.766;37.570;2023-05-11T00:42:25;100434.41;;;12.86;38.24
37792;BME280;29527;55.766;37.570;2023-05-11T00:44:50;100425.00;;;12.80;38.41
37792;BME280;29527;55.766;37.570;2023-05-11T00:47:16;100408.41;;;12.63;38.18
37792;BME280;29527;55.766;37.570;2023-05-11T00:49:42;100442.00;;;12.81;38.61
37792;BME280;29527;55.766;37.570;2023-05-11T00:52:08;100441.13;;;12.80;38.17
37792;BME280;29527;55.766;37.570;2023-05-11T00:54:35;100444.69;;;12.81;38.73
37792;BME280;29527;55.766;37.570;2023-05-11T00:57:02;100448.47;;;12.78;38.94
37792;BME280;29527;55.766;37.570;2023-05-11T00:59:28;100439.06;;;12.72;38.33
37792;BME280;29527;55.766;37.570;2023-05-11T01:01:54;100442.38;;;12.76;38.12
37792;BME280;29527;55.766;37.570;2023-05-11T01:04:20;100444.31;;;12.74;38.05
37792;BME280;29527;55.766;37.570;2023-05-11T01:06:51;100450.19;;;12.79;38.42
37792;BME280;29527;55.766;37.570;2023-05-11T01:09:50;100432.72;;;12.73;38.04
37792;BME280;29527;55.766;37.570;2023-05-11T01:12:31;100451.88;;;12.80;37.91
37792;BME280;29527;55.766;37.570;2023-05-11T01:15:08;100456.53;;;12.78;38.20
37792;BME280;29527;55.766;37.570;2023-05-11T01:20:09;100457.28;;;12.69;37.73
37792;BME280;29527;55.766;37.570;2023-05-11T01:31:11;100455.78;;;12.64;38.30
37792;BME280;29527;55.766;37.570;2023-05-11T01:33:45;100449.94;;;12.59;38.07
37792;BME280;29527;55.766;37.570;2023-05-11T01:36:13;100452.88;;;12.56;38.98
37792;BME280;29527;55.766;37.570;2023-05-11T01:38:45;100451.88;;;12.57;38.59
37792;BME280;29527;55.766;37.570;2023-05-11T01:41:17;100451.03;;;12.57;38.75
37792;BME280;29527;55.766;37.570;2023-05-11T01:43:45;100457.41;;;12.56;38.67
37792;BME280;29527;55.766;37.570;2023-05-11T01:46:14;100442.47;;;12.52;38.29
37792;BME280;29527;55.766;37.570;2023-05-11T01:48:45;100426.22;;;12.42;38.11
37792;BME280;29527;55.766;37.570;2023-05-11T01:51:14;100442.97;;;12.45;38.51
37792;BME280;29527;55.766;37.570;2023-05-11T01:53:41;100454.94;;;12.53;38.45
37792;BME280;29527;55.766;37.570;2023-05-11T01:56:08;100453.72;;;12.57;38.74
37792;BME280;29527;55.766;37.570;2023-05-11T01:58:35;100455.53;;;12.56;39.07
37792;BME280;29527;55.766;37.570;2023-05-11T02:01:03;100458.25;;;12.56;39.33
37792;BME280;29527;55.766;37.570;2023-05-11T02:03:34;100451.53;;;12.62;39.07
37792;BME280;29527;55.766;37.570;2023-05-11T02:06:03;100445.69;;;12.57;39.19
37792;BME280;29527;55.766;37.570;2023-05-11T02:08:30;100447.38;;;12.58;39.58
37792;BME280;29527;55.766;37.570;2023-05-11T02:10:57;100449.09;;;12.59;39.59
37792;BME280;29527;55.766;37.570;2023-05-11T02:13:25;100428.44;;;12.48;39.62
37792;BME280;29527;55.766;37.570;2023-05-11T02:15:54;100426.34;;;12.52;39.30
37792;BME280;29527;55.766;37.570;2023-05-11T02:18:20;100457.13;;;12.70;38.98
37792;BME280;29527;55.766;37.570;2023-05-11T02:20:47;100453.63;;;12.70;39.23
37792;BME280;29527;55.766;37.570;2023-05-11T02:23:13;100461.28;;;12.74;39.79
37792;BME280;29527;55.766;37.570;2023-05-11T02:25:40;100466.31;;;12.79;39.37
37792;BME280;29527;55.766;37.570;2023-05-11T02:28:07;100453.84;;;12.78;39.64
37792;BME280;29527;55.766;37.570;2023-05-11T02:30:39;100461.78;;;12.91;39.55
37792;BME280;29527;55.766;37.570;2023-05-11T02:33:07;100457.63;;;12.87;39.92
37792;BME280;29527;55.766;37.570;2023-05-11T02:35:37;100459.56;;;12.96;39.50
37792;BME280;29527;55.766;37.570;2023-05-11T02:38:06;100456.16;;;12.94;39.41
37792;BME280;29527;55.766;37.570;2023-05-11T02:40:41;100458.13;;;13.03;38.95
37792;BME280;29527;55.766;37.570;2023-05-11T02:43:17;100463.81;;;13.10;38.72
37792;BME280;29527;55.766;37.570;2023-05-11T02:45:43;100464.22;;;13.05;39.13
37792;BME280;29527;55.766;37.570;2023-05-11T02:48:20;100463.09;;;13.19;39.28
37792;BME280;29527;55.766;37.570;2023-05-11T02:50:47;100459.69;;;13.17;39.34
37792;BME280;29527;55.766;37.570;2023-05-11T02:53:15;100467.09;;;13.25;38.97
37792;BME280;29527;55.766;37.570;2023-05-11T02:55:42;100474.69;;;13.31;38.76
37792;BME280;29527;55.766;37.570;2023-05-11T02:58:08;100471.47;;;13.38;38.28
37792;BME280;29527;55.766;37.570;2023-05-11T03:00:33;100465.63;;;13.44;38.87
37792;BME280;29527;55.766;37.570;2023-05-11T03:02:59;100472.69;;;13.45;38.45
37792;BME280;29527;55.766;37.570;2023-05-11T03:05:25;100474.91;;;13.51;38.53
37792;BME280;29527;55.766;37.570;2023-05-11T03:07:52;100473.41;;;13.58;38.38
37792;BME280;29527;55.766;37.570;2023-05-11T03:10:20;100465.81;;;13.63;38.37
37792;BME280;29527;55.766;37.570;2023-05-11T03:12:46;100466.25;;;13.69;38.54
37792;BME280;29527;55.766;37.570;2023-05-11T03:15:12;100450.03;;;13.59;38.21
37792;BME280;29527;55.766;37.570;2023-05-11T03:17:40;100478.72;;;13.81;38.34
37792;BME280;29527;55.766;37.570;2023-05-11T03:20:07;100472.34;;;13.82;38.48
37792;BME280;29527;55.766;37.570;2023-05-11T03:22:36;100472.06;;;13.85;38.79
37792;BME280;29527;55.766;37.570;2023-05-11T03:25:03;100482.47;;;13.90;38.56
37792;BME280;29527;55.766;37.570;2023-05-11T03:27:34;100468.41;;;13.86;38.34
37792;BME280;29527;55.766;37.570;2023-05-11T03:30:03;100486.94;;;14.01;38.45
37792;BME280;29527;55.766;37.570;2023-05-11T03:32:29;100479.44;;;14.04;37.81
37792;BME280;29527;55.766;37.570;2023-05-11T03:34:55;100489.72;;;14.11;37.47
37792;BME280;29527;55.766;37.570;2023-05-11T03:37:21;100492.31;;;14.22;36.76
37792;BME280;29527;55.766;37.570;2023-05-11T03:39:51;100494.69;;;14.37;36.93
37792;BME280;29527;55.766;37.570;2023-05-11T03:42:19;100493.03;;;14.45;36.29
37792;BME280;29527;55.766;37.570;2023-05-11T03:44:48;100494.41;;;14.61;35.52
37792;BME280;29527;55.766;37.570;2023-05-11T03:47:16;100487.81;;;14.75;35.12
37792;BME280;29527;55.766;37.570;2023-05-11T03:49:43;100486.88;;;14.86;35.42
37792;BME280;29527;55.766;37.570;2023-05-11T03:52:09;100489.34;;;14.99;34.80
37792;BME280;29527;55.766;37.570;2023-05-11T03:54:35;100486.56;;;15.10;34.19
37792;BME280;29527;55.766;37.570;2023-05-11T03:57:01;100495.13;;;15.25;34.01
37792;BME280;29527;55.766;37.570;2023-05-11T03:59:26;100494.88;;;15.38;33.47
37792;BME280;29527;55.766;37.570;2023-05-11T04:01:52;100500.84;;;15.52;33.34
37792;BME280;29527;55.766;37.570;2023-05-11T04:04:27;100514.53;;;15.70;33.60
37792;BME280;29527;55.766;37.570;2023-05-11T04:06:53;100480.81;;;15.54;32.33
37792;BME280;29527;55.766;37.570;2023-05-11T04:09:19;100511.25;;;15.76;32.99
37792;BME280;29527;55.766;37.570;2023-05-11T04:11:46;100510.25;;;15.77;32.74
37792;BME280;29527;55.766;37.570;2023-05-11T04:14:11;100474.84;;;15.60;32.50
37792;BME280;29527;55.766;37.570;2023-05-11T04:16:37;100504.00;;;15.76;32.35
37792;BME280;29527;55.766;37.570;2023-05-11T04:19:02;100510.97;;;15.79;32.69
37792;BME280;29527;55.766;37.570;2023-05-11T04:21:28;100519.94;;;15.79;32.73
37792;BME280;29527;55.766;37.570;2023-05-11T04:23:53;100511.69;;;15.81;32.97
37792;BME280;29527;55.766;37.570;2023-05-11T04:26:19;100513.09;;;15.85;31.98
37792;BME280;29527;55.766;37.570;2023-05-11T04:28:46;100520.81;;;15.90;31.80
37792;BME280;29527;55.766;37.570;2023-05-11T04:31:11;100512.00;;;15.98;30.75
37792;BME280;29527;55.766;37.570;2023-05-11T04:33:37;100509.13;;;15.89;31.37
37792;BME280;29527;55.766;37.570;2023-05-11T04:36:02;100512.28;;;15.95;31.33
37792;BME280;29527;55.766;37.570;2023-05-11T04:38:28;100523.22;;;16.03;31.35
37792;BME280;29527;55.766;37.570;2023-05-11T04:40:55;100513.41;;;16.12;31.13
37792;BME280;29527;55.766;37.570;2023-05-11T04:43:20;100507.25;;;16.39;30.73
37792;BME280;29527;55.766;37.570;2023-05-11T04:45:47;100509.94;;;16.97;30.09
37792;BME280;29527;55.766;37.570;2023-05-11T04:48:14;100503.41;;;17.91;28.83
37792;BME280;29527;55.766;37.570;2023-05-11T04:50:40;100504.66;;;19.29;27.04
37792;BME280;29527;55.766;37.570;2023-05-11T04:53:05;100501.59;;;20.17;25.44
37792;BME280;29527;55.766;37.570;2023-05-11T04:55:31;100502.31;;;21.32;24.47
37792;BME280;29527;55.766;37.570;2023-05-11T04:57:56;100507.97;;;22.70;22.30
37792;BME280;29527;55.766;37.570;2023-05-11T05:00:22;100499.34;;;24.64;20.38
37792;BME280;29527;55.766;37.570;2023-05-11T05:02:47;100499.22;;;26.84;17.54
37792;BME280;29527;55.766;37.570;2023-05-11T05:05:15;100502.66;;;27.39;17.12
37792;BME280;29527;55.766;37.570;2023-05-11T05:07:41;100509.41;;;26.77;17.65
37792;BME280;29527;55.766;37.570;2023-05-11T05:10:06;100503.91;;;25.89;18.66
37792;BME280;29527;55.766;37.570;2023-05-11T05:12:37;100508.53;;;25.20;19.62
37792;BME280;29527;55.766;37.570;2023-05-11T05:15:04;100493.53;;;24.45;20.40
37792;BME280;29527;55.766;37.570;2023-05-11T05:17:31;100491.78;;;24.37;20.53
37792;BME280;29527;55.766;37.570;2023-05-11T05:19:56;100497.03;;;24.68;20.03
37792;BME280;29527;55.766;37.570;2023-05-11T05:22:25;100494.91;;;25.33;18.86
37792;BME280;29527;55.766;37.570;2023-05-11T05:24:51;100496.75;;;26.15;18.31
37792;BME280;29527;55.766;37.570;2023-05-11T05:27:16;100498.47;;;26.57;17.81
37792;BME280;29527;55.766;37.570;2023-05-11T05:29:42;100492.53;;;27.32;16.79
37792;BME280;29527;55.766;37.570;2023-05-11T05:32:07;100503.03;;;28.64;16.05
37792;BME280;29527;55.766;37.570;2023-05-11T05:34:33;100469.94;;;29.39;15.64
37792;BME280;29527;55.766;37.570;2023-05-11T05:36:58;100503.13;;;29.81;14.96
37792;BME280;29527;55.766;37.570;2023-05-11T05:39:24;100498.19;;;30.38;14.36
37792;BME280;29527;55.766;37.570;2023-05-11T05:41:50;100499.69;;;31.58;13.80
37792;BME280;29527;55.766;37.570;2023-05-11T05:44:15;100482.06;;;32.10;12.77
37792;BME280;29527;55.766;37.570;2023-05-11T05:46:41;100500.81;;;32.76;12.05
37792;BME280;29527;55.766;37.570;2023-05-11T05:49:06;100500.31;;;34.34;11.27
37792;BME280;29527;55.766;37.570;2023-05-11T05:51:32;100472.00;;;36.16;9.94
37792;BME280;29527;55.766;37.570;2023-05-11T05:53:58;100504.53;;;37.49;9.25
37792;BME280;29527;55.766;37.570;2023-05-11T05:56:23;100502.66;;;38.43;8.15
37792;BME280;29527;55.766;37.570;2023-05-11T05:58:49;100498.78;;;38.44;8.57
37792;BME280;29527;55.766;37.570;2023-05-11T06:01:14;100506.97;;;37.05;9.11
37792;BME280;29527;55.766;37.570;2023-05-11T06:03:40;100506.25;;;34.96;10.53
37792;BME280;29527;55.766;37.570;2023-05-11T06:06:06;100511.25;;;32.69;11.97
37792;BME280;29527;55.766;37.570;2023-05-11T06:08:32;100503.69;;;30.97;13.53
37792;BME280;29527;55.766;37.570;2023-05-11T06:10:57;100496.63;;;30.77;13.68
37792;BME280;29527;55.766;37.570;2023-05-11T06:13:23;100510.06;;;30.38;14.30
37792;BME280;29527;55.766;37.570;2023-05-11T06:15:49;100505.19;;;29.55;14.76
37792;BME280;29527;55.766;37.570;2023-05-11T06:18:14;100501.97;;;28.65;15.54
37792;BME280;29527;55.766;37.570;2023-05-11T06:20:40;100505.38;;;27.84;16.59
37792;BME280;29527;55.766;37.570;2023-05-11T06:23:06;100483.97;;;27.08;17.08
37792;BME280;29527;55.766;37.570;2023-05-11T06:25:33;100511.91;;;26.99;17.62
37792;BME280;29527;55.766;37.570;2023-05-11T06:27:59;100493.41;;;26.47;17.91
37792;BME280;29527;55.766;37.570;2023-05-11T06:30:25;100511.13;;;26.44;18.06
37792;BME280;29527;55.766;37.570;2023-05-11T06:32:50;100513.41;;;26.81;17.40
37792;BME280;29527;55.766;37.570;2023-05-11T06:35:16;100507.25;;;27.58;16.99
37792;BME280;29527;55.766;37.570;2023-05-11T06:37:41;100482.22;;;27.99;15.92
37792;BME280;29527;55.766;37.570;2023-05-11T06:40:07;100514.88;;;29.08;15.37
37792;BME280;29527;55.766;37.570;2023-05-11T06:42:33;100516.00;;;30.77;13.74
37792;BME280;29527;55.766;37.570;2023-05-11T06:44:59;100487.09;;;32.13;12.97
37792;BME280;29527;55.766;37.570;2023-05-11T06:47:25;100515.50;;;33.93;11.86
37792;BME280;29527;55.766;37.570;2023-05-11T06:49:50;100505.97;;;35.82;10.18
37792;BME280;29527;55.766;37.570;2023-05-11T06:52:16;100500.38;;;36.70;9.94
37792;BME280;29527;55.766;37.570;2023-05-11T06:54:41;100508.59;;;37.67;9.63
37792;BME280;29527;55.766;37.570;2023-05-11T06:57:07;100508.66;;;38.02;8.39
37792;BME280;29527;55.766;37.570;2023-05-11T06:59:32;100486.59;;;37.95;8.62
37792;BME280;29527;55.766;37.570;2023-05-11T07:01:58;100504.53;;;37.89;8.37
37792;BME280;29527;55.766;37.570;2023-05-11T07:04:23;100495.59;;;37.87;8.91
37792;BME280;29527;55.766;37.570;2023-05-11T07:06:49;100494.13;;;38.83;8.07
37792;BME280;29527;55.766;37.570;2023-05-11T07:09:15;100496.69;;;39.67;7.72
37792;BME280;29527;55.766;37.570;2023-05-11T07:11:41;100489.69;;;40.16;7.38
37792;BME280;29527;55.766;37.570;2023-05-11T07:14:06;100490.25;;;40.80;7.29
37792;BME280;29527;55.766;37.570;2023-05-11T07:16:35;100497.22;;;41.93;6.64
37792;BME280;29527;55.766;37.570;2023-05-11T07:19:05;100499.84;;;42.43;6.25
37792;BME280;29527;55.766;37.570;2023-05-11T07:21:33;100499.53;;;41.68;6.79
37792;BME280;29527;55.766;37.570;2023-05-11T07:23:59;100498.16;;;40.78;6.58
37792;BME280;29527;55.766;37.570;2023-05-11T07:26:25;100496.63;;;39.28;7.45
37792;BME280;29527;55.766;37.570;2023-05-11T07:28:50;100487.75;;;37.54;8.18
37792;BME280;29527;55.766;37.570;2023-05-11T07:31:16;100499.53;;;37.41;8.46
37792;BME280;29527;55.766;37.570;2023-05-11T07:33:42;100497.59;;;37.36;8.26
37792;BME280;29527;55.766;37.570;2023-05-11T07:36:07;100501.72;;;37.89;8.33
37792;BME280;29527;55.766;37.570;2023-05-11T07:38:33;100485.88;;;39.41;7.54
37792;BME280;29527;55.766;37.570;2023-05-11T07:40:58;100483.63;;;39.76;7.07
37792;BME280;29527;55.766;37.570;2023-05-11T07:43:24;100485.59;;;39.18;7.20
37792;BME280;29527;55.766;37.570;2023-05-11T07:45:50;100490.63;;;39.40;7.30
37792;BME280;29527;55.766;37.570;2023-05-11T07:48:15;100484.72;;;38.50;7.22
37792;BME280;29527;55.766;37.570;2023-05-11T07:50:43;100487.66;;;38.34;7.41
37792;BME280;29527;55.766;37.570;2023-05-11T07:53:08;100454.72;;;38.01;7.32
37792;BME280;29527;55.766;37.570;2023-05-11T07:55:34;100480.16;;;38.59;7.68
37792;BME280;29527;55.766;37.570;2023-05-11T07:57:59;100482.66;;;38.01;7.42
37792;BME280;29527;55.766;37.570;2023-05-11T08:00:25;100477.56;;;36.32;8.32
37792;BME280;29527;55.766;37.570;2023-05-11T08:02:51;100478.25;;;34.55;9.78
37792;BME280;29527;55.766;37.570;2023-05-11T08:05:18;100487.84;;;33.21;10.38
37792;BME280;29527;55.766;37.570;2023-05-11T08:07:44;100472.66;;;32.45;10.77
37792;BME280;29527;55.766;37.570;2023-05-11T08:10:11;100473.34;;;31.84;11.49
37792;BME280;29527;55.766;37.570;2023-05-11T08:12:37;100461.38;;;31.67;11.90
37792;BME280;29527;55.766;37.570;2023-05-11T08:15:04;100469.31;;;31.46;11.95
37792;BME280;29527;55.766;37.570;2023-05-11T08:17:31;100454.94;;;30.91;13.03
37792;BME280;29527;55.766;37.570;2023-05-11T08:19:57;100461.69;;;30.24;13.00
37792;BME280;29527;55.766;37.570;2023-05-11T08:22:22;100461.41;;;29.28;13.65
37792;BME280;29527;55.766;37.570;2023-05-11T08:24:49;100469.34;;;28.43;14.17
37792;BME280;29527;55.766;37.570;2023-05-11T08:27:17;100472.97;;;27.86;15.07
37792;BME280;29527;55.766;37.570;2023-05-11T08:29:43;100458.69;;;27.32;15.20
37792;BME280;29527;55.766;37.570;2023-05-11T08:32:08;100447.03;;;26.91;15.84
37792;BME280;29527;55.766;37.570;2023-05-11T08:34:34;100453.09;;;26.41;16.46
37792;BME280;29527;55.766;37.570;2023-05-11T08:37:00;100459.41;;;25.87;17.04
37792;BME280;29527;55.766;37.570;2023-05-11T08:39:29;100447.91;;;24.88;17.45
37792;BME280;29527;55.766;37.570;2023-05-11T08:41:57;100449.38;;;24.55;18.30
37792;BME280;29527;55.766;37.570;2023-05-11T08:44:28;100459.34;;;24.70;18.29
37792;BME280;29527;55.766;37.570;2023-05-11T08:46:55;100454.59;;;24.78;18.50
37792;BME280;29527;55.766;37.570;2023-05-11T08:49:22;100453.47;;;24.66;18.51
37792;BME280;29527;55.766;37.570;2023-05-11T08:51:48;100458.78;;;24.39;18.57
37792;BME280;29527;55.766;37.570;2023-05-11T08:54:13;100454.50;;;24.08;18.62
37792;BME280;29527;55.766;37.570;2023-05-11T08:56:40;100436.69;;;23.90;18.92
37792;BME280;29527;55.766;37.570;2023-05-11T08:59:06;100434.28;;;24.02;19.16
37792;BME280;29527;55.766;37.570;2023-05-11T09:01:34;100450.31;;;24.05;18.91
37792;BME280;29527;55.766;37.570;2023-05-11T09:04:00;100414.53;;;23.85;18.95
37792;BME280;29527;55.766;37.570;2023-05-11T09:06:26;100450.22;;;23.77;19.25
37792;BME280;29527;55.766;37.570;2023-05-11T09:08:53;100440.13;;;23.34;19.48
37792;BME280;29527;55.766;37.570;2023-05-11T09:11:19;100439.41;;;23.25;20.03
37792;BME280;29527;55.766;37.570;2023-05-11T09:13:45;100398.97;;;23.20;20.21
37792;BME280;29527;55.766;37.570;2023-05-11T09:16:11;100428.56;;;23.02;20.71
37792;BME280;29527;55.766;37.570;2023-05-11T09:21:13;100407.06;;;22.47;21.08
37792;BME280;29527;55.766;37.570;2023-05-11T09:23:39;100427.03;;;22.47;20.96
37792;BME280;29527;55.766;37.570;2023-05-11T09:26:30;100432.94;;;22.51;21.58
37792;BME280;29527;55.766;37.570;2023-05-11T09:28:58;100395.38;;;22.23;21.02
37792;BME280;29527;55.766;37.570;2023-05-11T09:34:22;100423.06;;;22.65;21.17
37792;BME280;29527;55.766;37.570;2023-05-11T09:36:55;100426.56;;;22.59;21.50
37792;BME280;29527;55.766;37.570;2023-05-11T09:39:34;100418.88;;;22.24;21.57
37792;BME280;29527;55.766;37.570;2023-05-11T09:42:11;100421.31;;;21.80;22.70
37792;BME280;29527;55.766;37.570;2023-05-11T09:44:37;100413.03;;;21.19;23.66
37792;BME280;29527;55.766;37.570;2023-05-11T09:47:18;100415.06;;;20.93;23.52
37792;BME280;29527;55.766;37.570;2023-05-11T09:49:45;100417.41;;;20.48;24.70
37792;BME280;29527;55.766;37.570;2023-05-11T09:52:15;100412.72;;;20.26;25.01
37792;BME280;29527;55.766;37.570;2023-05-11T09:54:41;100414.63;;;20.00;25.22
37792;BME280;29527;55.766;37.570;2023-05-11T09:57:28;100425.50;;;20.00;25.16
37792;BME280;29527;55.766;37.570;2023-05-11T09:59:58;100417.16;;;19.69;26.07
37792;BME280;29527;55.766;37.570;2023-05-11T10:02:26;100414.41;;;19.44;26.11
37792;BME280;29527;55.766;37.570;2023-05-11T10:04:57;100420.66;;;19.28;26.95
37792;BME280;29527;55.766;37.570;2023-05-11T10:07:29;100422.16;;;19.22;26.74
37792;BME280;29527;55.766;37.570;2023-05-11T10:10:06;100416.03;;;19.12;26.63
37792;BME280;29527;55.766;37.570;2023-05-11T10:12:33;100392.16;;;18.80;27.58
37792;BME280;29527;55.766;37.570;2023-05-11T10:15:04;100427.00;;;18.93;27.20
37792;BME280;29527;55.766;37.570;2023-05-11T10:17:36;100390.28;;;18.73;27.08
37792;BME280;29527;55.766;37.570;2023-05-11T10:20:04;100414.13;;;18.61;27.42
37792;BME280;29527;55.766;37.570;2023-05-11T10:22:35;100421.88;;;18.56;27.24
37792;BME280;29527;55.766;37.570;2023-05-11T10:25:01;100422.63;;;18.66;26.83
37792;BME280;29527;55.766;37.570;2023-05-11T10:27:30;100416.41;;;18.82;26.66
37792;BME280;29527;55.766;37.570;2023-05-11T10:29:57;100417.75;;;19.13;26.39
37792;BME280;29527;55.766;37.570;2023-05-11T10:32:22;100416.09;;;19.45;27.03
37792;BME280;29527;55.766;37.570;2023-05-11T10:34:48;100415.44;;;19.68;26.95
37792;BME280;29527;55.766;37.570;2023-05-11T10:37:17;100407.31;;;19.92;27.29
37792;BME280;29527;55.766;37.570;2023-05-11T10:39:44;100396.44;;;20.09;27.03
37792;BME280;29527;55.766;37.570;2023-05-11T10:54:20;100395.66;;;21.28;25.88
37792;BME280;29527;55.766;37.570;2023-05-11T11:01:56;100388.75;;;21.64;25.36
37792;BME280;29527;55.766;37.570;2023-05-11T11:04:41;100393.47;;;21.70;25.19
37792;BME280;29527;55.766;37.570;2023-05-11T11:07:07;100393.94;;;21.27;26.03
37792;BME280;29527;55.766;37.570;2023-05-11T11:09:54;100401.25;;;21.03;26.10
37792;BME280;29527;55.766;37.570;2023-05-11T11:12:22;100406.41;;;20.42;27.09
37792;BME280;29527;55.766;37.570;2023-05-11T11:14:59;100423.94;;;20.14;27.53
37792;BME280;29527;55.766;37.570;2023-05-11T11:19:52;100447.31;;;19.41;28.98
37792;BME280;29527;55.766;37.570;2023-05-11T11:24:59;100432.47;;;18.67;34.47
37792;BME280;29527;55.766;37.570;2023-05-11T11:32:41;100493.09;;;17.59;36.41
37792;BME280;29527;55.766;37.570;2023-05-11T11:40:41;100530.75;;;16.09;43.60
37792;BME280;29527;55.766;37.570;2023-05-11T11:43:16;100530.16;;;15.76;42.92
37792;BME280;29527;55.766;37.570;2023-05-11T11:45:59;100530.81;;;15.58;44.09
37792;BME280;29527;55.766;37.570;2023-05-11T11:48:34;100523.16;;;15.44;44.74
37792;BME280;29527;55.766;37.570;2023-05-11T11:56:02;100507.47;;;15.38;45.42
37792;BME280;29527;55.766;37.570;2023-05-11T12:01:18;100509.97;;;15.80;44.78
37792;BME280;29527;55.766;37.570;2023-05-11T12:03:46;100467.47;;;15.82;45.76
37792;BME280;29527;55.766;37.570;2023-05-11T12:06:19;100484.41;;;16.24;45.06
37792;BME280;29527;55.766;37.570;2023-05-11T12:08:49;100481.66;;;16.43;44.85
37792;BME280;29527;55.766;37.570;2023-05-11T12:11:16;100478.75;;;16.64;45.91
37792;BME280;29527;55.766;37.570;2023-05-11T12:13:42;100459.13;;;16.90;44.09
37792;BME280;29527;55.766;37.570;2023-05-11T12:16:12;100452.75;;;17.19;44.68
37792;BME280;29527;55.766;37.570;2023-05-11T12:18:38;100451.00;;;17.46;43.19
37792;BME280;29527;55.766;37.570;2023-05-11T12:21:04;100452.63;;;17.57;44.24
37792;BME280;29527;55.766;37.570;2023-05-11T12:23:30;100452.56;;;17.49;45.46
37792;BME280;29527;55.766;37.570;2023-05-11T12:26:05;100454.50;;;17.39;45.76
37792;BME280;29527;55.766;37.570;2023-05-11T12:28:31;100442.72;;;17.30;45.90
37792;BME280;29527;55.766;37.570;2023-05-11T12:30:57;100438.47;;;17.27;45.27
37792;BME280;29527;55.766;37.570;2023-05-11T12:33:23;100434.75;;;17.28;44.92
37792;BME280;29527;55.766;37.570;2023-05-11T12:35:55;100435.81;;;17.35;44.40
37792;BME280;29527;55.766;37.570;2023-05-11T12:38:22;100424.63;;;17.30;44.72
37792;BME280;29527;55.766;37.570;2023-05-11T12:40:49;100415.75;;;17.38;43.99
37792;BME280;29527;55.766;37.570;2023-05-11T12:43:19;100414.91;;;17.56;43.86
37792;BME280;29527;55.766;37.570;2023-05-11T12:45:45;100403.97;;;17.65;42.68
37792;BME280;29527;55.766;37.570;2023-05-11T12:48:12;100412.94;;;18.02;42.44
37792;BME280;29527;55.766;37.570;2023-05-11T12:50:42;100425.56;;;18.20;42.19
37792;BME280;29527;55.766;37.570;2023-05-11T12:53:16;100389.50;;;18.19;41.17
37792;BME280;29527;55.766;37.570;2023-05-11T12:55:42;100417.63;;;18.18;40.82
37792;BME280;29527;55.766;37.570;2023-05-11T12:58:15;100409.25;;;18.12;40.64
37792;BME280;29527;55.766;37.570;2023-05-11T13:00:53;100414.53;;;18.13;40.79
37792;BME280;29527;55.766;37.570;2023-05-11T13:03:21;100414.00;;;17.91;41.09
37792;BME280;29527;55.766;37.570;2023-05-11T13:05:47;100383.38;;;17.73;42.01
37792;BME280;29527;55.766;37.570;2023-05-11T13:08:12;100403.25;;;17.82;42.04
37792;BME280;29527;55.766;37.570;2023-05-11T13:10:40;100396.28;;;17.79;41.81
37792;BME280;29527;55.766;37.570;2023-05-11T13:13:05;100404.78;;;17.84;41.51
37792;BME280;29527;55.766;37.570;2023-05-11T13:15:30;100370.50;;;17.67;40.87
37792;BME280;29527;55.766;37.570;2023-05-11T13:18:01;100410.53;;;17.81;41.12
37792;BME280;29527;55.766;37.570;2023-05-11T13:20:29;100396.78;;;17.74;41.43
37792;BME280;29527;55.766;37.570;2023-05-11T13:23:08;100398.00;;;17.80;40.31
37792;BME280;29527;55.766;37.570;2023-05-11T13:25:49;100394.78;;;17.76;39.76
37792;BME280;29527;55.766;37.570;2023-05-11T13:28:18;100386.97;;;17.55;40.11
37792;BME280;29527;55.766;37.570;2023-05-11T13:30:44;100393.00;;;17.49;40.83
37792;BME280;29527;55.766;37.570;2023-05-11T13:33:10;100380.72;;;17.36;39.77
37792;BME280;29527;55.766;37.570;2023-05-11T13:35:43;100385.81;;;17.40;39.35
37792;BME280;29527;55.766;37.570;2023-05-11T13:38:09;100395.78;;;17.21;39.39
37792;BME280;29527;55.766;37.570;2023-05-11T13:40:36;100390.44;;;17.11;39.99